Weldon, Arkansas
Current Conditions -  °F | °C
As of 10:56 PM on Monday 26 Jan 2015 (Local Time) from KM19 Reporting Station
Clear Clear  
Wind Chill: 41°   Ceiling: Unl
Heat Index: 44°   Visibility: 10mi
Dew Point: 33°   Wind: 6mph
Humidity: 65%   Direction: 270°W
Pressure: 29.97"   Gusts: NA
Location:  35.5678°N, 91.2073°W
Report Text: KM19 270456Z AUTO 27005KT 10SM CLR 07/01 A2997 RMK AO2 T00660005 SLP150
Loading
Personal Weather Stations






























Interactive Weather Map New forecast layout! Learn more

10-Day Weather Forecast

Advertisements
Track Severe Weather on mobile